createdAt,value
2022-09-23T00:02:11.976Z,93.01
2022-09-23T00:05:15.477Z,92.80
2022-09-23T00:08:17.841Z,90.50
2022-09-23T00:11:23.800Z,91.24
2022-09-23T00:14:26.498Z,92.56
2022-09-23T00:17:29.054Z,92.93
2022-09-23T00:20:33.601Z,93.19
2022-09-23T00:23:36.789Z,92.77
2022-09-23T00:26:38.893Z,92.95
2022-09-23T00:29:41.376Z,91.96
2022-09-23T00:32:43.510Z,92.21
2022-09-23T00:35:46.101Z,90.10
2022-09-23T00:38:48.286Z,88.02
2022-09-23T00:41:51.215Z,91.96
2022-09-23T00:44:57.028Z,92.33
2022-09-23T00:48:02.769Z,92.97
2022-09-23T00:51:09.230Z,94.03
2022-09-23T00:54:11.750Z,94.79
2022-09-23T00:57:17.497Z,92.79
2022-09-23T01:00:20.632Z,91.74
2022-09-23T01:03:22.966Z,89.65
2022-09-23T01:06:26.266Z,89.26
2022-09-23T01:09:28.802Z,87.40
2022-09-23T01:12:52.594Z,87.08
2022-09-23T01:16:25.275Z,85.93
2022-09-23T01:20:00.497Z,89.17
2022-09-23T01:23:05.497Z,91.55
2022-09-23T01:26:29.672Z,91.39
2022-09-23T01:29:58.613Z,90.73
2022-09-23T01:33:08.825Z,88.07
2022-09-23T01:36:36.147Z,87.20
2022-09-23T01:40:07.065Z,88.07
2022-09-23T01:43:22.107Z,87.81
2022-09-23T01:46:31.965Z,88.37
2022-09-23T01:49:43.717Z,87.90
2022-09-23T01:52:48.125Z,87.57
2022-09-23T01:55:57.848Z,87.96
2022-09-23T01:59:10.972Z,89.75
2022-09-23T02:02:18.674Z,90.42
2022-09-23T02:05:37.605Z,89.09
2022-09-23T02:09:01.017Z,89.75
2022-09-23T02:12:08.479Z,92.62
2022-09-23T02:15:15.720Z,91.66
2022-09-23T02:18:33.207Z,92.40
2022-09-23T02:21:40.102Z,92.56
2022-09-23T02:24:42.746Z,91.52
2022-09-23T02:28:01.434Z,92.16
2022-09-23T02:31:12.080Z,91.11
2022-09-23T02:34:33.006Z,93.01
2022-09-23T02:38:06.319Z,92.59
2022-09-23T02:41:16.757Z,92.16
2022-09-23T02:44:20.413Z,93.02
2022-09-23T02:47:27.633Z,91.79
2022-09-23T02:50:31.036Z,90.87
2022-09-23T02:53:34.658Z,91.34
2022-09-23T02:56:37.475Z,92.30
2022-09-23T02:59:40.964Z,92.98
2022-09-23T03:03:11.245Z,92.89
2022-09-23T03:06:28.644Z,92.64
2022-09-23T03:09:42.583Z,91.58
2022-09-23T03:13:15.268Z,92.90
2022-09-23T03:16:48.025Z,91.72
2022-09-23T03:20:15.350Z,91.33
2022-09-23T03:23:34.556Z,91.51
2022-09-23T03:26:39.774Z,92.31
2022-09-23T03:29:47.370Z,92.86
2022-09-23T03:32:51.343Z,92.97
2022-09-23T03:36:26.450Z,92.37
2022-09-23T03:39:31.825Z,90.86
2022-09-23T03:42:35.809Z,89.91
2022-09-23T03:45:37.987Z,88.22
2022-09-23T03:48:40.736Z,87.90
2022-09-23T03:51:44.791Z,88.41
2022-09-23T03:54:48.090Z,86.87
2022-09-23T03:57:50.260Z,89.77
2022-09-23T04:00:54.748Z,92.12
2022-09-23T04:03:58.359Z,90.98
2022-09-23T04:07:00.635Z,90.23
2022-09-23T04:10:05.184Z,89.68
2022-09-23T04:13:07.301Z,89.47
2022-09-23T04:16:09.841Z,90.74
2022-09-23T04:19:12.673Z,89.58
2022-09-23T04:22:15.627Z,88.49
2022-09-23T04:25:17.736Z,88.77
2022-09-23T04:28:21.197Z,89.48
2022-09-23T04:31:23.898Z,88.37
2022-09-23T04:34:26.665Z,88.63
2022-09-23T04:37:29.457Z,88.91
2022-09-23T04:40:32.589Z,88.89
2022-09-23T04:43:34.730Z,89.39
2022-09-23T04:46:39.491Z,89.05
2022-09-23T04:49:41.797Z,88.61
2022-09-23T04:52:44.503Z,90.36
2022-09-23T04:55:46.702Z,91.47
2022-09-23T04:58:50.593Z,91.62
2022-09-23T05:01:54.567Z,90.38
2022-09-23T05:04:57.494Z,89.33
2022-09-23T05:08:00.471Z,89.15
2022-09-23T05:11:08.950Z,89.23
2022-09-23T05:14:11.389Z,87.98
2022-09-23T05:17:14.715Z,87.84
2022-09-23T05:20:17.821Z,87.54
2022-09-23T05:23:20.213Z,87.19
2022-09-23T05:26:25.363Z,86.42
2022-09-23T05:29:29.030Z,85.49
2022-09-23T05:32:31.707Z,82.85
2022-09-23T05:35:34.112Z,82.39
2022-09-23T05:38:36.650Z,83.31
2022-09-23T05:41:40.288Z,83.20
2022-09-23T05:44:42.710Z,82.51
2022-09-23T05:47:45.211Z,82.88
2022-09-23T05:50:53.704Z,82.21
2022-09-23T05:53:58.255Z,81.22
2022-09-23T05:57:04.345Z,81.30
2022-09-23T06:00:08.811Z,81.64
2022-09-23T06:03:15.137Z,82.30
2022-09-23T06:06:20.618Z,81.05
2022-09-23T06:09:23.071Z,80.73
2022-09-23T06:12:25.673Z,81.14
2022-09-23T06:15:27.840Z,82.15
2022-09-23T06:18:30.376Z,82.20
2022-09-23T06:21:34.630Z,81.76
2022-09-23T06:24:37.673Z,82.02
2022-09-23T06:27:39.859Z,81.37
2022-09-23T06:30:42.763Z,80.30
2022-09-23T06:33:46.021Z,77.42
2022-09-23T06:36:48.428Z,69.51
2022-09-23T06:39:50.575Z,63.84
2022-09-23T06:43:00.304Z,57.97
2022-09-23T06:46:04.487Z,53.30
2022-09-23T06:49:07.278Z,51.83
2022-09-23T06:52:09.670Z,48.94
2022-09-23T06:55:12.033Z,49.47
2022-09-23T06:58:14.144Z,47.40
2022-09-23T07:01:17.507Z,43.98
2022-09-23T07:04:19.745Z,45.19
2022-09-23T07:07:22.257Z,46.36
2022-09-23T07:10:24.684Z,43.60
2022-09-23T07:13:31.740Z,43.65
2022-09-23T07:16:34.018Z,43.08
2022-09-23T07:19:36.614Z,45.54
2022-09-23T07:22:39.164Z,46.07
2022-09-23T07:25:43.160Z,46.30
2022-09-23T07:28:45.746Z,49.41
2022-09-23T07:31:49.767Z,50.62
2022-09-23T07:34:53.250Z,52.60
2022-09-23T07:37:55.852Z,53.58
2022-09-23T07:41:08.881Z,54.99
2022-09-23T07:44:11.974Z,55.12
2022-09-23T07:47:14.575Z,55.72
2022-09-23T07:50:19.328Z,57.26
2022-09-23T07:53:21.522Z,58.12
2022-09-23T07:56:29.667Z,59.16
2022-09-23T07:59:32.125Z,57.61
2022-09-23T08:02:34.798Z,57.43
2022-09-23T08:05:38.987Z,55.73
2022-09-23T08:08:44.580Z,55.72
2022-09-23T08:11:48.123Z,56.69
2022-09-23T08:14:50.382Z,56.47
2022-09-23T08:17:52.893Z,56.52
2022-09-23T08:20:54.977Z,55.56
2022-09-23T08:23:57.559Z,56.01
2022-09-23T08:26:59.697Z,55.79
2022-09-23T08:30:02.443Z,56.32
2022-09-23T08:33:04.775Z,55.64
2022-09-23T08:36:07.634Z,56.05
2022-09-23T08:39:13.247Z,56.28
2022-09-23T08:42:27.848Z,57.60
2022-09-23T08:45:30.135Z,56.79
2022-09-23T08:48:36.814Z,57.25
2022-09-23T08:51:46.209Z,56.75
2022-09-23T08:54:53.146Z,56.90
2022-09-23T09:01:52.376Z,56.46
2022-09-23T09:04:59.733Z,56.26
2022-09-23T09:08:03.796Z,56.12
2022-09-23T09:11:06.928Z,55.37
2022-09-23T09:14:18.043Z,56.44
2022-09-23T09:17:35.093Z,56.15
2022-09-23T09:20:59.260Z,54.99
2022-09-23T09:24:07.553Z,53.44
2022-09-23T09:27:13.646Z,55.04
2022-09-23T09:30:17.477Z,54.53
2022-09-23T09:33:27.550Z,53.83
2022-09-23T09:36:44.350Z,53.22
2022-09-23T09:39:46.700Z,53.44
2022-09-23T09:42:50.383Z,53.81
2022-09-23T09:46:08.411Z,53.44
2022-09-23T09:49:23.333Z,52.98
2022-09-23T09:52:29.550Z,52.81
2022-09-23T09:55:31.778Z,54.77
2022-09-23T09:58:55.612Z,51.50
2022-09-23T10:02:19.582Z,52.62
2022-09-23T10:05:30.306Z,51.51
2022-09-23T10:08:35.371Z,53.15
2022-09-23T10:11:39.189Z,52.52
2022-09-23T10:14:43.121Z,53.48
2022-09-23T10:17:50.312Z,54.16
2022-09-23T10:20:52.974Z,53.74
2022-09-23T10:24:01.615Z,52.24
2022-09-23T10:27:11.809Z,52.73
2022-09-23T10:30:23.405Z,51.12
2022-09-23T10:33:28.489Z,50.64
2022-09-23T10:36:33.175Z,49.75
2022-09-23T10:39:53.985Z,49.34
2022-09-23T10:43:24.656Z,48.63
2022-09-23T10:46:38.355Z,49.33
2022-09-23T10:49:58.655Z,49.05
2022-09-23T10:53:27.929Z,49.19
2022-09-23T10:56:41.145Z,49.86
2022-09-23T11:00:03.464Z,48.64
2022-09-23T11:03:32.217Z,46.57
2022-09-23T11:06:47.923Z,48.69
2022-09-23T11:10:29.168Z,47.97
2022-09-23T11:14:07.103Z,47.45
2022-09-23T11:17:34.606Z,48.98
2022-09-23T11:20:42.528Z,49.41
2022-09-23T11:23:45.014Z,48.84
2022-09-23T11:27:05.032Z,48.96
2022-09-23T11:30:10.512Z,50.18
2022-09-23T11:34:15.964Z,48.93
2022-09-23T11:37:23.998Z,50.29
2022-09-23T11:40:36.246Z,52.66
2022-09-23T11:43:41.048Z,49.25
2022-09-23T11:47:07.981Z,50.91
2022-09-23T11:50:34.431Z,50.78
2022-09-23T11:53:49.902Z,50.03
2022-09-23T11:56:57.301Z,49.75
2022-09-23T12:00:06.274Z,49.64
2022-09-23T12:03:28.847Z,48.72
2022-09-23T12:06:41.748Z,46.59
2022-09-23T12:10:03.430Z,47.84
2022-09-23T12:13:32.289Z,47.57
2022-09-23T12:17:02.765Z,46.26
2022-09-23T12:20:13.136Z,48.34
2022-09-23T12:23:45.954Z,47.37
2022-09-23T12:26:57.127Z,48.01
2022-09-23T12:30:04.025Z,47.56
2022-09-23T12:33:09.436Z,49.06
2022-09-23T12:36:14.940Z,49.59
2022-09-23T12:39:49.720Z,50.48
2022-09-23T12:42:52.274Z,51.36
2022-09-23T12:45:54.471Z,45.63
2022-09-23T12:49:02.321Z,44.16
2022-09-23T12:52:10.444Z,45.69
2022-09-23T12:55:24.946Z,43.72
2022-09-23T12:58:42.181Z,45.34
2022-09-23T13:01:44.890Z,44.74
2022-09-23T13:05:16.114Z,45.85
2022-09-23T13:08:20.781Z,45.27
2022-09-23T13:11:27.928Z,45.48
2022-09-23T13:14:33.047Z,44.00
2022-09-23T13:17:39.911Z,42.30
2022-09-23T13:20:42.368Z,41.71
2022-09-23T13:24:28.877Z,42.98
2022-09-23T13:27:33.614Z,43.91
2022-09-23T13:30:36.120Z,43.98
2022-09-23T13:33:43.955Z,44.77
2022-09-23T13:36:47.843Z,44.90
2022-09-23T13:39:51.270Z,43.64
2022-09-23T13:42:57.934Z,44.26
2022-09-23T13:46:02.008Z,44.46
2022-09-23T13:49:04.492Z,44.45
2022-09-23T13:52:29.915Z,42.26
2022-09-23T13:55:37.334Z,42.56
2022-09-23T13:58:40.358Z,42.59
2022-09-23T14:01:42.441Z,43.27
2022-09-23T14:04:44.914Z,45.24
2022-09-23T14:07:48.704Z,47.87
2022-09-23T14:10:51.570Z,51.02
2022-09-23T14:13:54.955Z,52.47
2022-09-23T14:16:58.511Z,52.53
2022-09-23T14:20:01.047Z,52.73
2022-09-23T14:23:06.174Z,49.72
2022-09-23T14:26:08.340Z,46.07
2022-09-23T14:29:15.474Z,46.54
2022-09-23T14:32:24.749Z,46.83
2022-09-23T14:35:40.267Z,54.28
2022-09-23T14:38:51.369Z,52.69
2022-09-23T14:41:53.845Z,50.14
2022-09-23T14:44:56.077Z,48.58
2022-09-23T14:48:01.537Z,46.45
2022-09-23T14:51:09.216Z,48.59
2022-09-23T14:54:36.855Z,47.38
2022-09-23T14:57:39.811Z,46.00
2022-09-23T15:00:57.337Z,45.29
2022-09-23T15:04:11.580Z,44.79
2022-09-23T15:07:18.847Z,44.66
2022-09-23T15:10:27.618Z,44.46
2022-09-23T15:13:32.411Z,43.33
2022-09-23T15:16:34.620Z,43.25
2022-09-23T15:19:38.022Z,45.08
2022-09-23T15:22:48.848Z,45.46
2022-09-23T15:25:51.466Z,45.91
2022-09-23T15:28:58.290Z,45.37
2022-09-23T15:32:00.918Z,46.69
2022-09-23T15:35:03.213Z,46.64
2022-09-23T15:38:05.583Z,50.17
2022-09-23T15:41:07.869Z,50.35
2022-09-23T15:44:14.988Z,48.11
2022-09-23T15:47:18.626Z,50.34
2022-09-23T15:50:21.098Z,49.17
2022-09-23T15:53:27.764Z,49.99
2022-09-23T15:56:30.139Z,50.53
2022-09-23T15:59:32.756Z,53.27
2022-09-23T16:02:35.145Z,52.62
2022-09-23T16:05:39.295Z,53.04
2022-09-23T16:08:42.187Z,54.13
2022-09-23T16:11:47.159Z,56.16
2022-09-23T16:14:49.251Z,56.62
2022-09-23T16:17:51.662Z,56.33
2022-09-23T16:20:54.664Z,56.64
2022-09-23T16:23:57.957Z,58.67
2022-09-23T16:27:04.320Z,59.46
2022-09-23T16:30:07.547Z,60.09
2022-09-23T16:33:09.700Z,61.53
2022-09-23T16:36:35.820Z,63.19
2022-09-23T16:39:38.792Z,64.11
2022-09-23T16:42:41.147Z,65.11
2022-09-23T16:45:43.379Z,63.09
2022-09-23T16:48:52.112Z,64.10
2022-09-23T16:51:54.857Z,64.54
2022-09-23T16:54:57.374Z,64.84
2022-09-23T16:57:59.451Z,65.10
2022-09-23T17:01:20.753Z,65.67
2022-09-23T17:04:22.914Z,66.14
2022-09-23T17:07:26.119Z,67.03
2022-09-23T17:10:28.325Z,67.61
2022-09-23T17:13:31.021Z,67.68
2022-09-23T17:16:34.973Z,67.39
2022-09-23T17:19:38.085Z,68.92
2022-09-23T17:22:41.275Z,68.09
2022-09-23T17:25:48.172Z,69.71
2022-09-23T17:28:51.658Z,70.00
2022-09-23T17:31:54.363Z,72.33
2022-09-23T17:34:56.525Z,72.71
2022-09-23T17:37:58.883Z,73.12
2022-09-23T17:41:02.047Z,72.15
2022-09-23T17:44:04.764Z,72.05
2022-09-23T17:47:06.842Z,70.97
2022-09-23T17:50:09.293Z,69.43
2022-09-23T17:53:11.380Z,69.88
2022-09-23T17:56:19.424Z,70.17
2022-09-23T17:59:21.538Z,70.97
2022-09-23T18:02:23.919Z,71.37
2022-09-23T18:05:26.307Z,72.16
2022-09-23T18:08:30.431Z,72.57
2022-09-23T18:11:35.921Z,73.47
2022-09-23T18:14:38.009Z,72.38
2022-09-23T18:17:40.386Z,73.60
2022-09-23T18:20:42.450Z,72.81
2022-09-23T18:23:44.919Z,74.95
2022-09-23T18:26:47.679Z,76.05
2022-09-23T18:29:50.071Z,76.66
2022-09-23T18:32:52.466Z,78.07
2022-09-23T18:35:54.895Z,79.17
2022-09-23T18:38:56.993Z,78.71
2022-09-23T18:42:00.107Z,78.16
2022-09-23T18:45:02.198Z,78.89
2022-09-23T18:48:23.167Z,79.28
2022-09-23T18:51:28.393Z,79.54
2022-09-23T18:54:31.413Z,79.03
2022-09-23T18:57:33.492Z,78.98
2022-09-23T19:00:36.076Z,79.03
2022-09-23T19:03:38.756Z,79.14
2022-09-23T19:06:41.382Z,80.08
2022-09-23T19:09:43.480Z,79.89
2022-09-23T19:12:46.628Z,80.34
2022-09-23T19:15:48.761Z,80.34
2022-09-23T19:18:52.177Z,80.93
2022-09-23T19:21:54.716Z,81.51
2022-09-23T19:24:57.059Z,82.82
2022-09-23T19:27:59.154Z,82.65
2022-09-23T19:31:16.910Z,83.17
2022-09-23T19:34:23.838Z,83.42
2022-09-23T19:37:26.256Z,83.57
2022-09-23T19:40:31.346Z,84.54
2022-09-23T19:43:40.076Z,84.17
2022-09-23T19:46:45.251Z,83.59
2022-09-23T19:49:48.525Z,84.50
2022-09-23T19:52:51.737Z,84.55
2022-09-23T19:55:56.166Z,85.52
2022-09-23T19:58:59.469Z,86.00
2022-09-23T20:02:01.933Z,86.32
2022-09-23T20:05:04.577Z,86.03
2022-09-23T20:08:06.676Z,85.80
2022-09-23T20:11:12.437Z,85.87
2022-09-23T20:14:14.940Z,85.96
2022-09-23T20:17:19.108Z,85.26
2022-09-23T20:20:21.204Z,85.24
2022-09-23T20:23:23.527Z,85.40
2022-09-23T20:26:44.326Z,84.46
2022-09-23T20:29:46.679Z,83.74
2022-09-23T20:32:49.102Z,83.43
2022-09-23T20:35:53.183Z,82.48
2022-09-23T20:39:01.762Z,82.81
2022-09-23T20:42:04.083Z,83.61
2022-09-23T20:45:07.089Z,83.46
2022-09-23T20:48:11.282Z,84.34
2022-09-23T20:51:13.391Z,85.04
2022-09-23T20:54:18.924Z,84.51
2022-09-23T20:57:21.072Z,84.69
2022-09-23T21:00:23.416Z,83.30
2022-09-23T21:03:26.547Z,86.09
2022-09-23T21:06:29.392Z,86.47
2022-09-23T21:09:31.479Z,86.73
2022-09-23T21:12:35.124Z,87.17
2022-09-23T21:15:37.920Z,86.05
2022-09-23T21:18:40.268Z,84.88
2022-09-23T21:21:43.177Z,84.57
2022-09-23T21:25:31.552Z,84.71
2022-09-23T21:28:11.357Z,85.40
2022-09-23T21:31:25.387Z,84.92
2022-09-23T21:34:29.979Z,84.56
2022-09-23T21:37:32.323Z,83.36
2022-09-23T21:40:53.039Z,83.46
2022-09-23T21:43:56.285Z,84.07
2022-09-23T21:46:59.273Z,83.92
2022-09-23T21:50:02.838Z,83.27
2022-09-23T21:53:07.115Z,82.71
2022-09-23T21:56:11.871Z,82.19
2022-09-23T21:59:13.968Z,84.30
2022-09-23T22:02:17.244Z,84.67
2022-09-23T22:05:19.598Z,84.97
2022-09-23T22:08:21.694Z,85.68
2022-09-23T22:11:43.208Z,85.92
2022-09-23T22:14:47.139Z,86.90
2022-09-23T22:17:49.974Z,86.34
2022-09-23T22:20:52.048Z,86.22
2022-09-23T22:24:01.110Z,84.44
2022-09-23T22:27:03.379Z,85.29
2022-09-23T22:30:25.012Z,85.99
2022-09-23T22:33:27.076Z,86.38
2022-09-23T22:36:29.439Z,85.63
2022-09-23T22:39:31.515Z,86.43
2022-09-23T22:42:34.596Z,85.42
2022-09-23T22:45:37.610Z,84.32
2022-09-23T22:48:39.955Z,85.23
2022-09-23T22:51:42.705Z,85.40
2022-09-23T22:54:45.036Z,84.76
2022-09-23T22:57:50.447Z,86.19
2022-09-23T23:00:56.806Z,87.44
2022-09-23T23:04:02.276Z,87.21
2022-09-23T23:07:06.878Z,86.70
2022-09-23T23:10:10.280Z,86.62
2022-09-23T23:13:12.844Z,87.68
2022-09-23T23:16:14.964Z,88.20
2022-09-23T23:19:19.098Z,87.65
2022-09-23T23:22:21.234Z,87.76
2022-09-23T23:25:23.621Z,88.31
2022-09-23T23:28:28.019Z,88.56
2022-09-23T23:31:32.125Z,87.82
2022-09-23T23:34:34.415Z,87.64
2022-09-23T23:37:36.764Z,87.25
2022-09-23T23:40:38.883Z,86.87
2022-09-23T23:43:43.232Z,87.07
2022-09-23T23:46:45.317Z,85.80
2022-09-23T23:49:47.708Z,86.14
2022-09-23T23:52:49.788Z,85.95
2022-09-23T23:55:52.484Z,85.39
2022-09-23T23:58:56.488Z,82.87
